Fort Benning, GA (31905)

5:00 PM EDT on September 01, 2015 (GMT -0400)
Hilton Heights- Lynda Lane | | Change Station
CLOSE
Current Station
Personal Weather Station
Location: Columbus, GA
Elevation: 387 ft
Nearby Weather Stations

Elev 387 ft 32.49 °N, 84.95 °W | Updated 40 seconds ago

Mostly Cloudy
Mostly Cloudy
91.0 °F
Feels Like 98 °F
N
0.4
Wind Variable Wind from NE
Gusts 2.5 mph

Today
High -- | Low -- °F
--% Chance of Precip.
Yesterday
High -- | Low -- °F
Precip. -- in
7:14 AM 8:04 PM
Waning Gibbous, 86% visible
Pressure 30.04 in
Visibility 10.0 miles
Clouds Scattered Clouds 4900 ft
Overcast 9000 ft
Heat Index 98 °F
Dew Point 71 °F
Humidity 52%
Rainfall 0.00 in
Snow Depth Not available.
UV 2.0 out of 12
Pollen 8.80 out of 12
Air Quality Not available.
Flu Activity Not available.
METAR KCSG 012051Z 07005KT 10SM SCT049 OVC090 31/20 A3005 RMK AO2 SLP170 T03110200 58010
Pressure 30.04 in
Visibility 10.0 miles
Clouds Scattered Clouds 4900 ft
Overcast 9000 ft
Heat Index 98 °F
Dew Point 71 °F
Humidity 52%
Rainfall 0.00 in
Snow Depth Not available.
UV 2.0 out of 12
Pollen 8.80 out of 12
Air Quality Not available.
Flu Activity Not available.
METAR KCSG 012051Z 07005KT 10SM SCT049 OVC090 31/20 A3005 RMK AO2 SLP170 T03110200 58010

10-Day Weather Forecast

×

Almanac

Astronomy

Sep. 01, 2015 Rise Set
Actual Time
Civil Twilight
Nautical Twilight
Astronomical Twilight
Moon
Length of Visible Light
Length of Day
Tomorrow will be .
, % of the Moon is Illuminated

Today's Extremes

State Highs State Lows

Community

WunderPhotos

Upload Photos

1,851,616 photos uploaded!

WunderBlogs® & News

Nearby

Air Quality

  Air Quality AQ Index Pollutant
Not available.

Snow Depth

Station Depth Elevation

Earthquake Activity

City Distance Mag. Time & Date
Minimum magnitude displayed is 2.5.

Coastal Water Temperatures

Place Temperature

Stations

Nearby Weather Stations

Station Location Temp. Windchill Dew Point Humidity Wind Precip. Elev Updated Type